Time;durP1;ratioP1;P1;durP2;ratioP2;P2;SDS_P1;SDS_P2;PMS_P1;PMS_P2;Temp;Humidity;BMP_temperature;BMP_pressure;BME280_temperature;BME280_humidity;BME280_pressure;Samples;Min_cycle;Max_cycle;Signal;HPM_P1;HPM_P2
2021/06/23 00:01:28;;;;;;;10.77;8.02;;;;;;;;;;8322767;28;20388;-69
2021/06/23 00:05:33;;;;;;;12.48;7.28;;;;;;;;;;8282352;28;20484;-70
2021/06/23 00:09:39;;;;;;;11.05;8.40;;;;;;;;;;8290275;28;20495;-70
2021/06/23 00:13:45;;;;;;;14.13;9.00;;;;;;;;;;8291277;28;20056;-69
2021/06/23 00:17:50;;;;;;;14.23;8.65;;;;;;;;;;8290137;28;20467;-69
2021/06/23 00:21:55;;;;;;;12.50;8.77;;;;;;;;;;8290608;28;20476;-69
2021/06/23 00:26:01;;;;;;;14.85;8.82;;;;;;;;;;8273203;28;20376;-69
2021/06/23 00:30:07;;;;;;;15.43;9.18;;;;;;;;;;8257075;28;20348;-69
2021/06/23 00:34:13;;;;;;;14.27;9.77;;;;;;;;;;8289465;28;20384;-69
2021/06/23 00:38:19;;;;;;;15.02;10.93;;;;;;;;;;8255920;28;20049;-68
2021/06/23 00:42:24;;;;;;;15.23;10.15;;;;;;;;;;8290648;28;20478;-70
2021/06/23 00:46:30;;;;;;;17.90;10.77;;;;;;;;;;8273079;28;20295;-69
2021/06/23 00:50:40;;;;;;;15.05;10.05;;;;;;;;;;8272109;28;20460;-68
2021/06/23 00:55:20;;;;;;;14.50;10.10;;;;;;;;;;8273614;28;20490;-68
2021/06/23 00:59:27;;;;;;;20.73;10.77;;;;;;;;;;8286982;28;20052;-69
2021/06/23 01:03:31;;;;;;;16.67;11.10;;;;;;;;;;8271674;28;20476;-68
2021/06/23 01:07:44;;;;;;;20.92;12.27;;;;;;;;;;8271724;28;20968;-69
2021/06/23 01:12:16;;;;;;;13.87;10.03;;;;;;;;;;8289504;28;20060;-69
2021/06/23 01:16:22;;;;;;;19.45;12.90;;;;;;;;;;8271839;28;20452;-68
2021/06/23 01:20:29;;;;;;;16.58;12.07;;;;;;;;;;8271156;28;20375;-69
2021/06/23 01:24:35;;;;;;;14.70;10.90;;;;;;;;;;8271469;28;20480;-69
2021/06/23 01:28:41;;;;;;;18.60;10.98;;;;;;;;;;8288523;28;20476;-69
2021/06/23 01:32:53;;;;;;;18.23;10.35;;;;;;;;;;8276223;28;20045;-69
2021/06/23 01:36:58;;;;;;;16.52;11.52;;;;;;;;;;8298370;28;20463;-69
2021/06/23 01:41:07;;;;;;;16.05;10.48;;;;;;;;;;8293561;28;20490;-69
2021/06/23 01:45:16;;;;;;;15.43;10.30;;;;;;;;;;8295484;28;20379;-69
2021/06/23 01:49:26;;;;;;;15.98;11.38;;;;;;;;;;8279143;28;20395;-69
2021/06/23 01:53:35;;;;;;;14.15;10.65;;;;;;;;;;8277048;28;20479;-68
2021/06/23 01:57:42;;;;;;;18.05;10.18;;;;;;;;;;8294361;28;20476;-69
2021/06/23 02:02:15;;;;;;;12.95;9.85;;;;;;;;;;8277268;28;20467;-69
2021/06/23 02:07:05;;;;;;;15.80;10.48;;;;;;;;;;8277004;28;20382;-69
2021/06/23 02:11:46;;;;;;;14.82;10.45;;;;;;;;;;8293418;28;20432;-69
2021/06/23 02:16:09;;;;;;;18.00;10.45;;;;;;;;;;8277674;28;20134;-69
2021/06/23 02:20:18;;;;;;;15.38;10.52;;;;;;;;;;8262843;28;20352;-69
2021/06/23 02:24:29;;;;;;;15.93;9.70;;;;;;;;;;8293517;28;20074;-69
2021/06/23 02:28:41;;;;;;;14.18;10.50;;;;;;;;;;8293773;28;20487;-70
2021/06/23 02:32:55;;;;;;;17.63;10.20;;;;;;;;;;8293594;28;20414;-68
2021/06/23 02:37:12;;;;;;;14.57;9.25;;;;;;;;;;8291946;28;20379;-69
2021/06/23 02:41:19;;;;;;;22.13;10.35;;;;;;;;;;8277083;28;20364;-69
2021/06/23 02:45:30;;;;;;;16.35;10.05;;;;;;;;;;8274825;28;20476;-69
2021/06/23 02:49:38;;;;;;;17.48;10.70;;;;;;;;;;8293171;28;20067;-69
2021/06/23 02:53:45;;;;;;;14.43;9.25;;;;;;;;;;8293956;28;20052;-68
2021/06/23 02:57:53;;;;;;;14.13;9.38;;;;;;;;;;8260870;28;20349;-68
2021/06/23 03:01:59;;;;;;;16.02;10.55;;;;;;;;;;8297360;28;20361;-68
2021/06/23 03:06:06;;;;;;;17.00;10.65;;;;;;;;;;8290946;28;20436;-69
2021/06/23 03:10:40;;;;;;;20.65;10.63;;;;;;;;;;8290903;28;20044;-69
2021/06/23 03:14:45;;;;;;;13.63;9.65;;;;;;;;;;8290877;28;20045;-69
2021/06/23 03:18:53;;;;;;;15.25;8.98;;;;;;;;;;8287823;28;20357;-68
2021/06/23 03:22:59;;;;;;;13.63;9.38;;;;;;;;;;8303329;28;20467;-68
2021/06/23 03:27:06;;;;;;;18.60;9.43;;;;;;;;;;8303719;28;20494;-68
2021/06/23 03:31:13;;;;;;;17.73;10.38;;;;;;;;;;8304868;28;20052;-68
2021/06/23 03:35:21;;;;;;;15.85;9.65;;;;;;;;;;8291905;28;20486;-68
2021/06/23 03:39:28;;;;;;;14.15;9.55;;;;;;;;;;8290802;28;20393;-68
2021/06/23 03:43:39;;;;;;;17.10;10.05;;;;;;;;;;8291853;28;20044;-69
2021/06/23 03:47:45;;;;;;;29.20;11.75;;;;;;;;;;8274436;28;20361;-69
2021/06/23 03:51:52;;;;;;;14.73;10.10;;;;;;;;;;8258536;28;20345;-68
2021/06/23 03:55:59;;;;;;;13.75;9.40;;;;;;;;;;8288590;28;20375;-69
2021/06/23 04:00:07;;;;;;;18.02;10.25;;;;;;;;;;8291067;28;20349;-69
2021/06/23 04:04:22;;;;;;;20.83;10.52;;;;;;;;;;8274737;28;20380;-68
2021/06/23 04:08:38;;;;;;;17.80;10.65;;;;;;;;;;8275410;28;20498;-69
2021/06/23 04:12:45;;;;;;;15.73;11.55;;;;;;;;;;8290059;28;20415;-68
2021/06/23 04:16:52;;;;;;;17.83;12.30;;;;;;;;;;8272987;28;20060;-68
2021/06/23 04:20:58;;;;;;;17.30;11.23;;;;;;;;;;8257124;28;20475;-68
2021/06/23 04:25:09;;;;;;;18.70;11.57;;;;;;;;;;8288704;28;20468;-69
2021/06/23 04:29:16;;;;;;;24.75;10.85;;;;;;;;;;8291933;28;20407;-69
2021/06/23 04:33:23;;;;;;;16.08;10.52;;;;;;;;;;8290837;28;20359;-68
2021/06/23 04:37:43;;;;;;;16.05;11.02;;;;;;;;;;8289716;28;20052;-69
2021/06/23 04:41:49;;;;;;;20.63;10.85;;;;;;;;;;8290520;28;20482;-69
2021/06/23 04:45:54;;;;;;;17.13;11.00;;;;;;;;;;8288162;28;20044;-70
2021/06/23 04:50:00;;;;;;;18.33;10.65;;;;;;;;;;8289924;28;20413;-69
2021/06/23 04:54:24;;;;;;;16.17;10.20;;;;;;;;;;8288476;28;20456;-69
2021/06/23 04:58:31;;;;;;;19.60;9.75;;;;;;;;;;8273355;28;20348;-69
2021/06/23 05:02:44;;;;;;;14.20;9.55;;;;;;;;;;8271820;28;20502;-69
2021/06/23 05:06:50;;;;;;;13.88;9.02;;;;;;;;;;8293452;28;20071;-68
2021/06/23 05:10:56;;;;;;;16.55;9.02;;;;;;;;;;8278736;28;20356;-69
2021/06/23 05:15:01;;;;;;;12.15;8.43;;;;;;;;;;8293654;28;20471;-69
2021/06/23 05:19:07;;;;;;;14.35;9.07;;;;;;;;;;8296184;28;20371;-69
2021/06/23 05:23:12;;;;;;;14.40;9.48;;;;;;;;;;8278582;28;20463;-69
2021/06/23 05:27:18;;;;;;;12.88;9.55;;;;;;;;;;8296429;28;20375;-69
2021/06/23 05:31:24;;;;;;;14.10;9.23;;;;;;;;;;8277669;28;20463;-70
2021/06/23 05:35:29;;;;;;;15.93;10.40;;;;;;;;;;8277620;28;20375;-69
2021/06/23 05:39:34;;;;;;;19.35;11.13;;;;;;;;;;8277842;28;20395;-69
2021/06/23 05:43:40;;;;;;;19.65;11.55;;;;;;;;;;8295653;28;20468;-69
2021/06/23 05:47:46;;;;;;;16.50;11.45;;;;;;;;;;8277808;28;20486;-69
2021/06/23 05:51:51;;;;;;;18.55;12.27;;;;;;;;;;8296508;28;20475;-70
2021/06/23 05:55:57;;;;;;;21.13;12.73;;;;;;;;;;8296163;28;20338;-69
2021/06/23 06:00:03;;;;;;;26.73;13.52;;;;;;;;;;8296446;28;20522;-69
2021/06/23 06:04:17;;;;;;;22.85;14.23;;;;;;;;;;8294219;28;20075;-69
2021/06/23 06:08:22;;;;;;;21.10;13.77;;;;;;;;;;8294160;28;20075;-69
2021/06/23 06:12:27;;;;;;;24.20;14.27;;;;;;;;;;8276776;28;20476;-69
2021/06/23 06:16:33;;;;;;;20.30;13.52;;;;;;;;;;8292727;28;20448;-69
2021/06/23 06:20:39;;;;;;;28.80;15.15;;;;;;;;;;8293934;28;20510;-69
2021/06/23 06:24:46;;;;;;;29.20;16.00;;;;;;;;;;8292502;28;20387;-69
2021/06/23 06:28:50;;;;;;;22.50;15.48;;;;;;;;;;8277864;28;20375;-69
2021/06/23 06:32:55;;;;;;;25.58;15.60;;;;;;;;;;8293316;28;20451;-70
2021/06/23 06:37:01;;;;;;;23.48;15.38;;;;;;;;;;8295383;28;20379;-69
2021/06/23 06:41:06;;;;;;;21.05;14.30;;;;;;;;;;8275411;28;20075;-69
2021/06/23 06:45:12;;;;;;;23.85;14.70;;;;;;;;;;8293164;28;20460;-69
2021/06/23 06:49:17;;;;;;;28.63;13.95;;;;;;;;;;8275825;28;20369;-69
2021/06/23 06:53:24;;;;;;;19.02;12.93;;;;;;;;;;8291889;28;20345;-69
2021/06/23 06:57:29;;;;;;;19.90;12.68;;;;;;;;;;8277882;28;20044;-70
2021/06/23 07:01:35;;;;;;;24.15;14.02;;;;;;;;;;8291756;28;20498;-68
2021/06/23 07:05:41;;;;;;;19.63;13.07;;;;;;;;;;8275568;28;20384;-69
2021/06/23 07:09:47;;;;;;;25.08;13.73;;;;;;;;;;8276406;28;20358;-70
2021/06/23 07:13:52;;;;;;;23.83;16.35;;;;;;;;;;8295929;28;20451;-69
2021/06/23 07:17:59;;;;;;;32.58;18.52;;;;;;;;;;8292313;28;20482;-69
2021/06/23 07:22:05;;;;;;;26.13;15.23;;;;;;;;;;8290787;28;20352;-69
2021/06/23 07:26:10;;;;;;;25.15;16.55;;;;;;;;;;8273961;28;20766;-69
2021/06/23 07:30:25;;;;;;;27.30;15.27;;;;;;;;;;8292141;28;20075;-69
2021/06/23 07:39:02;;;;;;;23.42;14.57;;;;;;;;;;8291959;28;20071;-69
2021/06/23 07:43:07;;;;;;;26.08;16.55;;;;;;;;;;8291415;28;20114;-69
2021/06/23 07:47:23;;;;;;;23.85;15.32;;;;;;;;;;8274396;28;20053;-69
2021/06/23 07:51:40;;;;;;;23.80;14.15;;;;;;;;;;8291535;28;20390;-70
2021/06/23 07:55:50;;;;;;;21.23;12.82;;;;;;;;;;8275235;28;20356;-69
2021/06/23 08:13:06;;;;;;;20.23;13.18;;;;;;;;;;8292612;28;20906;-70
2021/06/23 08:17:12;;;;;;;24.25;14.85;;;;;;;;;;8273337;28;20478;-69
2021/06/23 08:21:17;;;;;;;20.05;13.88;;;;;;;;;;8256711;28;20368;-69
2021/06/23 08:25:24;;;;;;;23.60;14.20;;;;;;;;;;8290510;28;20456;-69
2021/06/23 08:29:30;;;;;;;23.85;14.48;;;;;;;;;;8256166;28;20101;-69
2021/06/23 08:33:35;;;;;;;21.08;13.40;;;;;;;;;;8289142;28;20480;-68
2021/06/23 08:37:43;;;;;;;23.50;14.88;;;;;;;;;;8290860;28;20364;-69
2021/06/23 08:41:49;;;;;;;27.90;14.75;;;;;;;;;;8255727;28;20106;-69
2021/06/23 08:45:54;;;;;;;25.15;15.23;;;;;;;;;;8291226;28;20093;-69
2021/06/23 08:50:01;;;;;;;25.33;15.23;;;;;;;;;;8274110;28;20161;-69
2021/06/23 08:54:06;;;;;;;28.50;16.48;;;;;;;;;;8274063;28;20459;-70
2021/06/23 08:58:11;;;;;;;23.38;16.40;;;;;;;;;;8255238;28;20448;-70
2021/06/23 09:02:18;;;;;;;29.52;16.52;;;;;;;;;;8290727;28;20501;-69
2021/06/23 09:06:54;;;;;;;24.48;16.95;;;;;;;;;;8256877;28;20111;-70
2021/06/23 09:11:01;;;;;;;23.40;15.98;;;;;;;;;;8254522;28;20376;-70
2021/06/23 09:15:37;;;;;;;28.02;16.08;;;;;;;;;;8256513;28;20460;-70
2021/06/23 09:19:48;;;;;;;25.85;17.42;;;;;;;;;;8242425;28;20371;-69
2021/06/23 09:23:57;;;;;;;26.58;17.60;;;;;;;;;;8257401;28;20353;-69
2021/06/23 09:28:06;;;;;;;23.67;16.15;;;;;;;;;;8255147;28;20479;-69
2021/06/23 09:32:12;;;;;;;25.77;16.00;;;;;;;;;;8256226;28;20407;-69
2021/06/23 09:36:18;;;;;;;21.58;16.23;;;;;;;;;;8238449;28;20359;-69
2021/06/23 09:40:44;;;;;;;27.35;15.77;;;;;;;;;;8239249;28;20368;-69
2021/06/23 09:45:08;;;;;;;23.75;15.82;;;;;;;;;;8255929;28;20048;-69
2021/06/23 09:49:27;;;;;;;20.80;15.05;;;;;;;;;;8258444;28;20487;-69
2021/06/23 09:53:32;;;;;;;23.42;14.27;;;;;;;;;;8260213;28;20479;-69
2021/06/23 09:57:40;;;;;;;21.80;14.32;;;;;;;;;;8260887;28;20479;-70
2021/06/23 10:01:45;;;;;;;24.73;14.52;;;;;;;;;;8248065;28;20049;-69
2021/06/23 10:05:51;;;;;;;21.48;14.80;;;;;;;;;;8265850;28;20352;-68
2021/06/23 10:09:56;;;;;;;24.25;15.48;;;;;;;;;;8261848;28;20372;-69
2021/06/23 10:14:02;;;;;;;30.50;16.60;;;;;;;;;;8262491;28;20372;-69
2021/06/23 10:18:08;;;;;;;26.42;15.10;;;;;;;;;;8243944;28;20483;-69
2021/06/23 10:22:14;;;;;;;22.05;14.25;;;;;;;;;;8260530;28;20056;-69
2021/06/23 10:26:32;;;;;;;19.05;13.95;;;;;;;;;;8246002;28;20049;-69
2021/06/23 10:30:38;;;;;;;25.80;14.70;;;;;;;;;;8229350;28;20067;-69
2021/06/23 10:34:44;;;;;;;24.48;15.50;;;;;;;;;;8243517;28;20460;-69
2021/06/23 10:38:51;;;;;;;22.70;15.38;;;;;;;;;;8243367;28;20041;-69
2021/06/23 10:43:16;;;;;;;25.00;15.43;;;;;;;;;;8245322;28;20349;-69
2021/06/23 10:47:41;;;;;;;21.15;14.63;;;;;;;;;;8259932;28;20460;-69
2021/06/23 10:51:51;;;;;;;25.48;15.30;;;;;;;;;;8259323;28;20052;-69
2021/06/23 10:55:58;;;;;;;26.40;16.10;;;;;;;;;;8260740;28;20071;-70
2021/06/23 11:00:12;;;;;;;22.73;15.13;;;;;;;;;;8260435;28;20101;-69
2021/06/23 11:04:17;;;;;;;19.40;14.80;;;;;;;;;;8259704;28;20049;-69
2021/06/23 11:08:36;;;;;;;23.35;14.43;;;;;;;;;;8242297;28;20336;-70
2021/06/23 11:12:44;;;;;;;20.35;14.88;;;;;;;;;;8259485;28;20449;-69
2021/06/23 11:16:50;;;;;;;25.13;15.70;;;;;;;;;;8242097;28;20045;-70
2021/06/23 11:21:00;;;;;;;19.33;13.93;;;;;;;;;;8260232;28;20451;-69
2021/06/23 11:25:26;;;;;;;21.08;13.05;;;;;;;;;;8259673;28;20048;-69
2021/06/23 11:29:32;;;;;;;23.17;12.32;;;;;;;;;;8242297;28;20396;-69
2021/06/23 11:33:38;;;;;;;17.30;11.70;;;;;;;;;;8241134;28;20445;-70
2021/06/23 11:37:44;;;;;;;18.03;11.90;;;;;;;;;;8259729;28;20980;-71
2021/06/23 11:41:50;;;;;;;16.95;10.95;;;;;;;;;;8257403;28;20357;-69
2021/06/23 11:45:56;;;;;;;17.40;12.10;;;;;;;;;;8258853;28;20053;-70
2021/06/23 11:50:08;;;;;;;18.67;11.50;;;;;;;;;;8241742;28;20458;-69
2021/06/23 11:54:14;;;;;;;18.58;11.77;;;;;;;;;;8257789;28;20384;-68
2021/06/23 11:58:21;;;;;;;20.35;11.65;;;;;;;;;;8258726;28;20388;-70
2021/06/23 12:02:27;;;;;;;14.48;11.82;;;;;;;;;;8241579;28;20344;-70
2021/06/23 12:06:33;;;;;;;22.60;11.55;;;;;;;;;;8241178;28;20045;-68
2021/06/23 12:10:39;;;;;;;21.50;10.70;;;;;;;;;;8240664;28;20479;-68
2021/06/23 12:14:44;;;;;;;15.88;9.95;;;;;;;;;;8258005;28;20372;-69
2021/06/23 12:18:50;;;;;;;16.88;11.05;;;;;;;;;;8240497;28;20380;-69
2021/06/23 12:22:59;;;;;;;19.80;11.13;;;;;;;;;;8259039;28;20444;-69
2021/06/23 12:27:05;;;;;;;17.70;11.55;;;;;;;;;;8257813;28;20392;-69
2021/06/23 12:31:11;;;;;;;15.77;11.97;;;;;;;;;;8256216;28;20488;-69
2021/06/23 12:35:17;;;;;;;14.80;11.88;;;;;;;;;;8258028;28;20464;-69
2021/06/23 12:39:22;;;;;;;20.02;12.63;;;;;;;;;;8257546;28;20365;-69
2021/06/23 12:43:27;;;;;;;17.90;11.30;;;;;;;;;;8257510;28;20088;-70
2021/06/23 12:47:33;;;;;;;17.13;11.75;;;;;;;;;;8257866;28;20053;-71
2021/06/23 12:51:39;;;;;;;16.67;12.18;;;;;;;;;;8259424;28;20360;-70
2021/06/23 12:55:44;;;;;;;18.25;10.35;;;;;;;;;;8258295;28;20388;-70
2021/06/23 12:59:50;;;;;;;23.88;14.48;;;;;;;;;;8237875;28;20376;-71
2021/06/23 13:03:54;;;;;;;15.00;10.90;;;;;;;;;;8255807;28;20391;-70
2021/06/23 13:07:59;;;;;;;23.67;11.00;;;;;;;;;;8257203;28;20471;-70
2021/06/23 13:12:05;;;;;;;57.55;13.13;;;;;;;;;;8256477;28;20503;-70
2021/06/23 13:16:15;;;;;;;20.77;12.80;;;;;;;;;;8254642;28;20361;-69
2021/06/23 13:20:24;;;;;;;23.98;11.45;;;;;;;;;;8238904;28;20380;-69
2021/06/23 13:24:29;;;;;;;20.25;11.55;;;;;;;;;;8239735;28;20361;-70
2021/06/23 13:28:35;;;;;;;17.30;9.90;;;;;;;;;;8261054;28;20381;-68
2021/06/23 13:32:40;;;;;;;18.17;10.88;;;;;;;;;;8229393;28;20476;-69
2021/06/23 13:36:46;;;;;;;17.17;11.18;;;;;;;;;;8263431;28;20476;-68
2021/06/23 13:40:53;;;;;;;15.25;10.52;;;;;;;;;;8262746;28;20334;-68
2021/06/23 13:44:59;;;;;;;16.63;10.73;;;;;;;;;;8263154;28;20367;-69
2021/06/23 13:49:06;;;;;;;18.23;11.65;;;;;;;;;;8262826;28;20484;-68
2021/06/23 13:53:16;;;;;;;15.70;9.95;;;;;;;;;;8262588;28;20510;-68
2021/06/23 13:57:21;;;;;;;17.73;11.13;;;;;;;;;;8264243;28;20337;-68
2021/06/23 14:01:27;;;;;;;18.98;13.18;;;;;;;;;;8246358;28;20455;-68
2021/06/23 14:05:34;;;;;;;22.65;12.45;;;;;;;;;;8243320;28;20363;-71
2021/06/23 14:09:40;;;;;;;26.63;12.98;;;;;;;;;;8261205;28;20490;-70
2021/06/23 14:13:46;;;;;;;21.90;12.75;;;;;;;;;;8226817;28;20057;-70
2021/06/23 14:17:51;;;;;;;18.50;12.65;;;;;;;;;;8260022;28;20353;-70
2021/06/23 14:21:57;;;;;;;18.98;12.43;;;;;;;;;;8245243;28;20045;-71
2021/06/23 14:26:06;;;;;;;19.80;11.70;;;;;;;;;;8262552;28;20122;-70
2021/06/23 14:30:17;;;;;;;26.25;13.48;;;;;;;;;;8261172;28;20383;-68
2021/06/23 14:34:22;;;;;;;22.17;11.82;;;;;;;;;;8243673;28;20084;-69
2021/06/23 14:38:28;;;;;;;32.72;14.32;;;;;;;;;;8243305;28;20045;-69
2021/06/23 14:42:35;;;;;;;18.07;12.40;;;;;;;;;;8259852;28;20460;-69
2021/06/23 14:46:42;;;;;;;20.92;12.77;;;;;;;;;;8243033;28;20129;-69
2021/06/23 14:50:48;;;;;;;;;;;;;;;;;;8260860;28;20464;-70
2021/06/23 14:54:54;;;;;;;21.90;12.55;;;;;;;;;;8259254;28;20248;-70
2021/06/23 14:59:00;;;;;;;20.60;12.25;;;;;;;;;;8255341;28;20057;-70
2021/06/23 15:03:05;;;;;;;19.05;12.02;;;;;;;;;;8257765;28;20444;-70
2021/06/23 15:07:11;;;;;;;15.05;11.50;;;;;;;;;;8226252;28;20436;-70
2021/06/23 15:11:16;;;;;;;19.67;11.68;;;;;;;;;;8260020;28;20458;-69
2021/06/23 15:15:22;;;;;;;18.30;11.82;;;;;;;;;;8259457;28;20494;-69
2021/06/23 15:19:28;;;;;;;19.55;11.60;;;;;;;;;;8242295;28;20360;-70
2021/06/23 15:23:34;;;;;;;16.87;11.40;;;;;;;;;;8260364;28;20372;-69
2021/06/23 15:27:42;;;;;;;15.73;11.45;;;;;;;;;;8261559;28;20464;-69
2021/06/23 15:31:48;;;;;;;21.80;11.23;;;;;;;;;;8258076;28;20495;-69
2021/06/23 15:35:53;;;;;;;21.55;11.18;;;;;;;;;;8241727;28;20490;-69
2021/06/23 15:40:03;;;;;;;16.75;11.57;;;;;;;;;;8259610;28;20052;-69
2021/06/23 15:44:09;;;;;;;19.13;11.23;;;;;;;;;;8241927;28;20044;-69
2021/06/23 15:48:14;;;;;;;20.20;11.73;;;;;;;;;;8258840;28;20460;-69
2021/06/23 15:52:23;;;;;;;18.38;11.82;;;;;;;;;;8240755;28;20496;-70
2021/06/23 15:56:28;;;;;;;19.02;10.60;;;;;;;;;;8257742;28;20360;-69
2021/06/23 16:00:34;;;;;;;18.55;11.25;;;;;;;;;;8259414;28;20067;-69
2021/06/23 16:04:39;;;;;;;16.60;11.20;;;;;;;;;;8224017;28;20056;-69
2021/06/23 16:08:45;;;;;;;14.65;9.95;;;;;;;;;;8258106;28;20049;-69
2021/06/23 16:12:51;;;;;;;21.40;11.35;;;;;;;;;;8258037;28;20418;-70
2021/06/23 16:16:56;;;;;;;19.73;10.60;;;;;;;;;;8258224;28;20048;-69
2021/06/23 16:21:02;;;;;;;17.95;10.85;;;;;;;;;;8262339;28;20365;-70
2021/06/23 16:25:13;;;;;;;16.83;10.98;;;;;;;;;;8257933;28;20494;-68
2021/06/23 16:29:20;;;;;;;18.17;11.07;;;;;;;;;;8239842;28;20116;-69
2021/06/23 16:33:26;;;;;;;18.33;11.10;;;;;;;;;;8258234;28;20368;-70
2021/06/23 16:37:32;;;;;;;23.88;11.40;;;;;;;;;;8240331;28;20393;-69
2021/06/23 16:41:39;;;;;;;14.98;10.93;;;;;;;;;;8258082;28;20345;-69
2021/06/23 16:45:44;;;;;;;16.83;11.40;;;;;;;;;;8257039;28;20486;-69
2021/06/23 16:49:50;;;;;;;15.57;11.55;;;;;;;;;;8240165;28;20376;-69
2021/06/23 16:53:55;;;;;;;17.15;11.02;;;;;;;;;;8241128;28;20380;-70
2021/06/23 16:58:01;;;;;;;15.75;11.45;;;;;;;;;;8223043;28;20472;-69
2021/06/23 17:02:06;;;;;;;17.40;11.45;;;;;;;;;;8255613;28;20496;-70
2021/06/23 17:06:17;;;;;;;16.27;11.68;;;;;;;;;;8239467;28;20487;-69
2021/06/23 17:10:21;;;;;;;19.17;11.52;;;;;;;;;;8256564;28;20445;-69
2021/06/23 17:14:28;;;;;;;19.03;11.13;;;;;;;;;;8257255;28;20479;-70
2021/06/23 17:18:34;;;;;;;21.48;12.45;;;;;;;;;;8239003;28;20405;-70
2021/06/23 17:22:41;;;;;;;26.37;12.77;;;;;;;;;;8257778;28;20461;-69
2021/06/23 17:26:47;;;;;;;20.25;12.40;;;;;;;;;;8240967;28;20470;-69
2021/06/23 17:30:53;;;;;;;18.85;12.85;;;;;;;;;;8258616;28;20468;-69
2021/06/23 17:34:58;;;;;;;22.92;13.02;;;;;;;;;;8257195;28;20373;-69
2021/06/23 17:39:06;;;;;;;23.10;13.57;;;;;;;;;;8239939;28;20053;-68
2021/06/23 17:43:11;;;;;;;22.60;13.38;;;;;;;;;;8255723;28;20367;-69
2021/06/23 17:47:18;;;;;;;22.08;13.85;;;;;;;;;;8239266;28;20379;-68
2021/06/23 17:51:23;;;;;;;21.23;13.80;;;;;;;;;;8258467;28;20514;-68
2021/06/23 17:55:30;;;;;;;17.90;13.25;;;;;;;;;;8258122;28;20437;-69
2021/06/23 17:59:37;;;;;;;19.08;12.23;;;;;;;;;;8256092;28;20114;-69
2021/06/23 18:03:41;;;;;;;24.92;13.88;;;;;;;;;;8256114;28;20441;-69
2021/06/23 18:07:46;;;;;;;22.10;14.65;;;;;;;;;;8259048;28;20068;-70
2021/06/23 18:11:53;;;;;;;22.80;15.13;;;;;;;;;;8257889;28;20470;-70
2021/06/23 18:15:58;;;;;;;18.42;14.10;;;;;;;;;;8259464;28;20626;-70
2021/06/23 18:20:06;;;;;;;22.92;14.80;;;;;;;;;;8262023;28;20419;-70
2021/06/23 18:24:12;;;;;;;18.50;13.32;;;;;;;;;;8260472;28;20372;-70
2021/06/23 18:28:17;;;;;;;21.10;13.15;;;;;;;;;;8260372;28;20079;-70
2021/06/23 18:32:23;;;;;;;19.13;12.65;;;;;;;;;;8243469;28;20392;-70
2021/06/23 18:36:29;;;;;;;25.67;12.45;;;;;;;;;;8261943;28;20041;-72
2021/06/23 18:40:36;;;;;;;18.05;10.85;;;;;;;;;;8260550;28;20361;-70
2021/06/23 18:44:42;;;;;;;;;;;;;;;;;;8261560;28;20455;-70
2021/06/23 18:48:47;;;;;;;16.33;11.25;;;;;;;;;;8259913;28;20267;-70
2021/06/23 18:52:52;;;;;;;18.42;10.15;;;;;;;;;;8259543;28;20452;-69
2021/06/23 18:57:00;;;;;;;15.77;10.55;;;;;;;;;;8259886;28;20464;-70
2021/06/23 19:01:05;;;;;;;;;;;;;;;;;;8260155;28;20074;-69
2021/06/23 19:05:11;;;;;;;18.02;10.30;;;;;;;;;;8244978;28;20320;-69
2021/06/23 19:09:18;;;;;;;17.10;9.52;;;;;;;;;;8260307;28;20045;-69
2021/06/23 19:13:24;;;;;;;17.00;10.27;;;;;;;;;;8259337;28;20372;-68
2021/06/23 19:17:30;;;;;;;15.32;9.73;;;;;;;;;;8261207;28;20978;-68
2021/06/23 19:21:42;;;;;;;14.00;9.02;;;;;;;;;;8243028;28;20445;-69
2021/06/23 19:25:48;;;;;;;15.48;9.43;;;;;;;;;;8242001;28;20487;-71
2021/06/23 19:29:53;;;;;;;16.65;9.02;;;;;;;;;;8259581;28;20063;-69
2021/06/23 19:33:59;;;;;;;15.85;9.20;;;;;;;;;;8258435;28;20453;-69
2021/06/23 19:38:05;;;;;;;14.93;9.90;;;;;;;;;;8259535;28;20358;-70
2021/06/23 19:42:11;;;;;;;13.65;9.52;;;;;;;;;;8259011;28;20445;-69
2021/06/23 19:46:35;;;;;;;14.05;9.60;;;;;;;;;;8257901;28;20364;-69
2021/06/23 19:50:43;;;;;;;14.02;9.57;;;;;;;;;;8258210;28;20484;-69
2021/06/23 19:54:52;;;;;;;18.75;9.75;;;;;;;;;;8259131;28;20448;-69
2021/06/23 19:58:57;;;;;;;16.92;9.85;;;;;;;;;;8257751;28;20071;-69
2021/06/23 20:03:03;;;;;;;21.20;11.93;;;;;;;;;;8257448;28;20476;-70
2021/06/23 20:07:08;;;;;;;18.50;11.45;;;;;;;;;;8257460;28;20052;-69
2021/06/23 20:11:14;;;;;;;25.40;12.93;;;;;;;;;;8224798;28;20379;-69
2021/06/23 20:15:20;;;;;;;25.83;13.32;;;;;;;;;;8240301;28;20349;-69
2021/06/23 20:19:26;;;;;;;18.10;11.10;;;;;;;;;;8255963;28;20375;-70
2021/06/23 20:23:32;;;;;;;21.60;13.02;;;;;;;;;;8258216;28;20486;-69
2021/06/23 20:27:38;;;;;;;19.48;11.80;;;;;;;;;;8224210;28;20469;-69
2021/06/23 20:31:43;;;;;;;23.00;12.05;;;;;;;;;;8258235;28;20373;-69
2021/06/23 20:35:48;;;;;;;16.15;10.98;;;;;;;;;;8257124;28;20041;-69
2021/06/23 20:39:54;;;;;;;17.98;10.35;;;;;;;;;;8241012;28;20079;-69
2021/06/23 20:44:00;;;;;;;21.17;12.93;;;;;;;;;;8259686;28;20470;-69
2021/06/23 20:48:06;;;;;;;24.38;13.02;;;;;;;;;;8258078;28;20108;-69
2021/06/23 20:52:12;;;;;;;23.48;12.80;;;;;;;;;;8257130;28;20366;-70
2021/06/23 20:56:20;;;;;;;20.92;12.32;;;;;;;;;;8257097;28;20380;-70
2021/06/23 21:00:29;;;;;;;25.02;13.75;;;;;;;;;;8256389;28;20371;-70
2021/06/23 21:04:42;;;;;;;21.70;11.80;;;;;;;;;;8255543;28;20369;-71
2021/06/23 21:08:50;;;;;;;23.88;13.18;;;;;;;;;;8256670;28;20472;-70
2021/06/23 21:13:05;;;;;;;21.45;12.48;;;;;;;;;;8259263;28;20368;-70
2021/06/23 21:17:15;;;;;;;21.85;11.35;;;;;;;;;;8256588;28;20411;-70
2021/06/23 21:21:20;;;;;;;18.85;12.32;;;;;;;;;;8240784;28;20407;-69
2021/06/23 21:25:26;;;;;;;25.27;13.20;;;;;;;;;;8257092;28;20475;-70
2021/06/23 21:29:44;;;;;;;26.23;14.13;;;;;;;;;;8258301;28;20368;-69
2021/06/23 21:33:51;;;;;;;26.55;14.55;;;;;;;;;;8256655;28;20410;-70
2021/06/23 21:38:00;;;;;;;26.50;14.13;;;;;;;;;;8257355;28;20456;-70
2021/06/23 21:42:09;;;;;;;23.80;13.45;;;;;;;;;;8238628;28;20380;-70
2021/06/23 21:46:30;;;;;;;25.75;15.32;;;;;;;;;;8255912;28;20364;-69
2021/06/23 21:50:55;;;;;;;23.92;14.60;;;;;;;;;;8260353;28;20411;-69
2021/06/23 21:55:06;;;;;;;31.10;14.98;;;;;;;;;;8262287;28;20500;-69
2021/06/23 21:59:11;;;;;;;25.27;14.73;;;;;;;;;;8264398;28;20472;-70
2021/06/23 22:03:29;;;;;;;22.05;13.02;;;;;;;;;;8261702;28;20071;-72
2021/06/23 22:07:40;;;;;;;24.65;14.50;;;;;;;;;;8264597;28;20071;-69
2021/06/23 22:11:52;;;;;;;22.73;15.57;;;;;;;;;;8262049;28;20390;-69
2021/06/23 22:16:04;;;;;;;28.90;17.02;;;;;;;;;;8262413;28;20373;-70
2021/06/23 22:20:28;;;;;;;31.38;18.00;;;;;;;;;;8261576;28;20368;-70
2021/06/23 22:24:36;;;;;;;22.65;13.95;;;;;;;;;;8262149;28;20487;-69
2021/06/23 22:28:47;;;;;;;26.87;16.47;;;;;;;;;;8261734;28;20384;-69
2021/06/23 22:32:59;;;;;;;27.77;17.73;;;;;;;;;;8261600;28;20498;-69
2021/06/23 22:37:06;;;;;;;31.80;17.80;;;;;;;;;;8260506;28;20060;-69
2021/06/23 22:41:18;;;;;;;28.00;17.23;;;;;;;;;;8261067;28;20367;-69
2021/06/23 22:45:24;;;;;;;26.10;16.42;;;;;;;;;;8244847;28;20486;-69
2021/06/23 22:49:38;;;;;;;27.58;15.52;;;;;;;;;;8259109;28;20053;-69
2021/06/23 22:53:50;;;;;;;23.65;14.30;;;;;;;;;;8259747;28;20384;-69
2021/06/23 22:58:01;;;;;;;17.92;12.75;;;;;;;;;;8259482;28;20376;-70
2021/06/23 23:02:11;;;;;;;23.50;14.07;;;;;;;;;;8259183;28;20484;-69
2021/06/23 23:06:20;;;;;;;22.50;13.00;;;;;;;;;;8260007;28;20460;-70
2021/06/23 23:10:29;;;;;;;20.30;13.75;;;;;;;;;;8243332;28;20506;-69
2021/06/23 23:14:35;;;;;;;19.00;12.32;;;;;;;;;;8243074;28;20380;-69
2021/06/23 23:18:44;;;;;;;22.08;13.40;;;;;;;;;;8258214;28;20075;-69
2021/06/23 23:22:49;;;;;;;19.80;13.07;;;;;;;;;;8259876;28;20360;-69
2021/06/23 23:26:56;;;;;;;23.05;14.70;;;;;;;;;;8259925;28;20120;-70
2021/06/23 23:31:01;;;;;;;20.55;13.23;;;;;;;;;;8243422;28;20468;-70
2021/06/23 23:35:08;;;;;;;25.90;14.25;;;;;;;;;;8258795;28;20187;-70
2021/06/23 23:39:14;;;;;;;27.70;13.60;;;;;;;;;;8259096;28;20348;-70
2021/06/23 23:43:19;;;;;;;26.75;13.52;;;;;;;;;;8241492;28;20490;-70
2021/06/23 23:47:24;;;;;;;22.10;13.75;;;;;;;;;;8240498;28;20502;-70
2021/06/23 23:51:30;;;;;;;19.42;13.60;;;;;;;;;;8257554;28;20396;-70
2021/06/23 23:55:46;;;;;;;24.30;14.05;;;;;;;;;;8259074;28;20487;-70
2021/06/23 23:59:52;;;;;;;16.88;12.25;;;;;;;;;;8257492;28;20376;-69
